createdAt,value
2022-09-25T00:03:06.406Z,10.70
2022-09-25T00:08:10.755Z,10.60
2022-09-25T00:13:15.671Z,11.60
2022-09-25T00:18:42.709Z,11.00
2022-09-25T00:23:46.296Z,11.70
2022-09-25T00:28:50.219Z,10.90
2022-09-25T00:33:57.011Z,10.10
2022-09-25T00:39:00.889Z,10.50
2022-09-25T00:44:05.243Z,10.30
2022-09-25T00:49:22.205Z,9.70
2022-09-25T00:54:32.370Z,10.30
2022-09-25T00:59:44.313Z,9.40
2022-09-25T01:04:48.540Z,10.10
2022-09-25T01:09:52.411Z,9.40
2022-09-25T01:14:58.061Z,9.50
2022-09-25T01:20:10.643Z,9.60
2022-09-25T01:25:38.895Z,8.60
2022-09-25T01:30:48.675Z,8.00
2022-09-25T01:36:49.564Z,8.20
2022-09-25T01:42:27.843Z,7.70
2022-09-25T01:47:40.192Z,7.90
2022-09-25T01:52:50.822Z,8.60
2022-09-25T01:58:11.765Z,8.10
2022-09-25T02:03:26.381Z,8.60
2022-09-25T02:08:41.029Z,8.60
2022-09-25T02:13:50.803Z,8.70
2022-09-25T02:19:13.257Z,8.60
2022-09-25T02:24:33.544Z,8.80
2022-09-25T02:29:36.793Z,9.10
2022-09-25T02:34:40.142Z,8.30
2022-09-25T02:39:48.106Z,8.60
2022-09-25T02:45:39.152Z,10.00
2022-09-25T02:51:05.477Z,8.20
2022-09-25T02:56:21.430Z,9.30
2022-09-25T03:01:29.300Z,8.20
2022-09-25T03:06:32.623Z,8.80
2022-09-25T03:11:42.506Z,8.10
2022-09-25T03:16:58.699Z,9.00
2022-09-25T03:22:03.335Z,8.80
2022-09-25T03:27:06.827Z,8.30
2022-09-25T03:32:10.392Z,8.90
2022-09-25T03:37:13.543Z,8.20
2022-09-25T03:42:16.838Z,8.60
2022-09-25T03:47:20.447Z,7.90
2022-09-25T03:52:23.637Z,7.80
2022-09-25T03:57:26.844Z,8.20
2022-09-25T04:02:29.989Z,8.60
2022-09-25T04:07:34.036Z,9.10
2022-09-25T04:12:37.144Z,8.50
2022-09-25T04:17:41.667Z,8.30
2022-09-25T04:22:45.288Z,8.50
2022-09-25T04:27:50.109Z,8.90
2022-09-25T04:33:11.919Z,8.40
2022-09-25T04:38:15.029Z,8.10
2022-09-25T04:43:18.860Z,8.30
2022-09-25T04:48:22.320Z,8.70
2022-09-25T04:53:31.203Z,8.10
2022-09-25T04:58:35.292Z,8.80
2022-09-25T05:03:38.556Z,8.00
2022-09-25T05:08:41.769Z,8.60
2022-09-25T05:13:47.727Z,8.40
2022-09-25T05:18:50.812Z,8.30
2022-09-25T05:23:57.088Z,8.30
2022-09-25T05:29:00.204Z,8.60
2022-09-25T05:34:03.414Z,8.40
2022-09-25T05:39:14.631Z,8.20
2022-09-25T05:44:18.498Z,7.80
2022-09-25T05:49:21.655Z,8.20
2022-09-25T05:54:24.825Z,7.10
2022-09-25T05:59:29.326Z,8.30
2022-09-25T06:04:32.468Z,7.60
2022-09-25T06:09:36.380Z,8.10
2022-09-25T06:14:41.466Z,6.90
2022-09-25T06:19:45.316Z,7.80
2022-09-25T06:24:49.273Z,8.40
2022-09-25T06:29:54.866Z,7.60
2022-09-25T06:34:58.123Z,8.40
2022-09-25T06:40:01.374Z,8.00
2022-09-25T06:45:05.043Z,7.70
2022-09-25T06:50:09.465Z,8.30
2022-09-25T06:55:12.613Z,8.00
2022-09-25T07:00:15.752Z,8.50
2022-09-25T07:05:19.193Z,8.00
2022-09-25T07:10:23.021Z,8.10
2022-09-25T07:15:26.398Z,8.50
2022-09-25T07:20:29.577Z,9.20
2022-09-25T07:25:33.184Z,9.00
2022-09-25T07:30:36.527Z,7.50
2022-09-25T07:35:40.461Z,6.50
2022-09-25T07:40:43.845Z,6.80
2022-09-25T07:45:54.006Z,6.60
2022-09-25T07:51:02.372Z,6.60
2022-09-25T07:56:07.193Z,6.80
2022-09-25T08:01:13.793Z,6.90
2022-09-25T08:06:17.243Z,7.20
2022-09-25T08:11:20.516Z,6.20
2022-09-25T08:16:23.703Z,5.80
2022-09-25T08:21:27.159Z,6.80
2022-09-25T08:26:31.611Z,7.00
2022-09-25T08:31:35.649Z,6.80
2022-09-25T08:36:39.355Z,7.00
2022-09-25T08:41:47.977Z,5.70
2022-09-25T08:47:22.344Z,5.90
2022-09-25T08:52:25.966Z,5.70
2022-09-25T08:57:40.622Z,8.20
2022-09-25T09:02:48.551Z,5.60
2022-09-25T09:08:03.397Z,6.10
2022-09-25T09:13:39.014Z,6.10
2022-09-25T09:18:43.442Z,6.10
2022-09-25T09:23:55.991Z,6.70
2022-09-25T09:29:41.069Z,6.80
2022-09-25T09:35:07.040Z,6.40
2022-09-25T09:40:25.147Z,6.30
2022-09-25T09:45:44.511Z,7.00
2022-09-25T09:50:53.008Z,7.30
2022-09-25T09:56:10.509Z,6.70
2022-09-25T10:01:37.055Z,7.30
2022-09-25T10:06:45.994Z,7.50
2022-09-25T10:12:00.111Z,9.00
2022-09-25T10:17:05.722Z,9.40
2022-09-25T10:22:21.256Z,9.70
2022-09-25T10:27:29.060Z,8.90
2022-09-25T10:32:43.840Z,9.00
2022-09-25T10:37:54.531Z,7.40
2022-09-25T10:43:16.174Z,7.50
2022-09-25T10:48:50.218Z,7.90
2022-09-25T10:54:09.240Z,7.80
2022-09-25T10:59:22.264Z,7.30
2022-09-25T11:04:34.920Z,6.70
2022-09-25T11:09:45.380Z,7.40
2022-09-25T11:15:06.145Z,5.70
2022-09-25T11:20:16.865Z,7.50
2022-09-25T11:25:31.872Z,7.80
2022-09-25T11:30:48.748Z,7.20
2022-09-25T11:36:09.358Z,6.50
2022-09-25T11:41:41.395Z,6.40
2022-09-25T11:47:37.550Z,6.50
2022-09-25T11:52:54.158Z,6.10
2022-09-25T11:58:08.975Z,6.30
2022-09-25T12:03:15.148Z,6.10
2022-09-25T12:08:18.431Z,6.40
2022-09-25T12:13:41.372Z,6.30
2022-09-25T12:19:17.148Z,5.60
2022-09-25T12:24:40.634Z,5.70
2022-09-25T12:30:08.252Z,5.50
2022-09-25T12:35:29.336Z,5.90
2022-09-25T12:40:52.576Z,6.10
2022-09-25T12:46:38.281Z,8.90
2022-09-25T12:51:50.730Z,7.90
2022-09-25T12:57:20.245Z,6.70
2022-09-25T13:02:41.206Z,6.20
2022-09-25T13:08:24.864Z,6.00
2022-09-25T13:13:41.171Z,6.40
2022-09-25T13:19:13.807Z,5.70
2022-09-25T13:24:18.693Z,5.80
2022-09-25T13:29:36.641Z,5.40
2022-09-25T13:34:41.931Z,6.40
2022-09-25T13:40:07.192Z,6.70
2022-09-25T13:45:26.455Z,6.90
2022-09-25T13:50:36.662Z,6.50
2022-09-25T13:56:03.513Z,6.60
2022-09-25T14:01:33.246Z,6.10
2022-09-25T14:06:39.468Z,4.90
2022-09-25T14:11:51.064Z,6.30
2022-09-25T14:16:58.870Z,5.90
2022-09-25T14:22:06.711Z,5.80
2022-09-25T14:27:23.913Z,6.20
2022-09-25T14:32:56.685Z,5.60
2022-09-25T14:38:48.017Z,5.90
2022-09-25T14:44:04.074Z,5.80
2022-09-25T14:49:24.399Z,6.10
2022-09-25T14:54:37.166Z,5.90
2022-09-25T14:59:47.330Z,6.70
2022-09-25T15:04:51.293Z,6.30
2022-09-25T15:09:59.437Z,5.10
2022-09-25T15:15:14.870Z,6.80
2022-09-25T15:20:21.839Z,7.70
2022-09-25T15:25:33.443Z,7.30
2022-09-25T15:30:42.005Z,7.10
2022-09-25T15:35:55.443Z,7.10
2022-09-25T15:41:00.166Z,5.90
2022-09-25T15:46:10.751Z,6.90
2022-09-25T15:51:16.710Z,6.90
2022-09-25T15:56:53.608Z,7.30
2022-09-25T16:02:16.849Z,7.80
2022-09-25T16:07:31.902Z,9.60
2022-09-25T16:12:46.078Z,9.50
2022-09-25T16:17:50.027Z,9.40
2022-09-25T16:23:06.746Z,11.00
2022-09-25T16:28:24.004Z,11.20
2022-09-25T16:33:31.818Z,9.70
2022-09-25T16:38:40.619Z,10.20
2022-09-25T16:43:44.073Z,10.80
2022-09-25T16:49:00.785Z,14.30
2022-09-25T16:54:06.326Z,14.00
2022-09-25T16:59:26.855Z,13.20
2022-09-25T17:04:31.771Z,17.10
2022-09-25T17:09:34.985Z,12.20
2022-09-25T17:14:40.404Z,13.70
2022-09-25T17:19:43.661Z,13.20
2022-09-25T17:24:52.540Z,12.50
2022-09-25T17:29:56.046Z,12.90
2022-09-25T17:35:01.371Z,14.10
2022-09-25T17:40:04.774Z,13.80
2022-09-25T17:45:32.345Z,12.10
2022-09-25T17:50:38.865Z,12.30
2022-09-25T17:55:42.737Z,12.00
2022-09-25T18:00:46.768Z,12.70
2022-09-25T18:05:53.496Z,11.90
2022-09-25T18:11:00.169Z,10.90
2022-09-25T18:16:12.132Z,10.30
2022-09-25T18:21:35.434Z,10.90
2022-09-25T18:26:42.384Z,10.90
2022-09-25T18:31:47.763Z,10.30
2022-09-25T18:36:52.353Z,10.10
2022-09-25T18:41:56.273Z,9.90
2022-09-25T18:47:00.682Z,10.00
2022-09-25T18:52:04.233Z,9.90
2022-09-25T18:57:07.738Z,9.80
2022-09-25T19:02:28.225Z,10.40
2022-09-25T19:07:33.067Z,9.20
2022-09-25T19:13:02.048Z,8.60
2022-09-25T19:18:06.993Z,9.00
2022-09-25T19:23:10.684Z,8.80
2022-09-25T19:28:14.506Z,8.50
2022-09-25T19:33:21.173Z,7.90
2022-09-25T19:38:25.029Z,7.40
2022-09-25T19:43:32.614Z,8.40
2022-09-25T19:48:36.501Z,8.90
2022-09-25T19:53:41.855Z,9.50
2022-09-25T19:58:49.947Z,9.80
2022-09-25T20:03:56.507Z,9.20
2022-09-25T20:09:01.395Z,9.60
2022-09-25T20:14:06.847Z,9.30
2022-09-25T20:19:10.896Z,9.00
2022-09-25T20:24:15.632Z,9.30
2022-09-25T20:29:20.820Z,9.40
2022-09-25T20:34:24.183Z,10.70
2022-09-25T20:39:27.976Z,11.30
2022-09-25T20:44:31.451Z,10.60
2022-09-25T20:49:34.729Z,11.10
2022-09-25T20:54:42.120Z,9.90
2022-09-25T20:59:45.617Z,11.20
2022-09-25T21:04:51.603Z,10.60
2022-09-25T21:09:57.677Z,10.90
2022-09-25T21:15:01.138Z,11.10
2022-09-25T21:20:04.851Z,11.20
2022-09-25T21:25:13.430Z,12.20
2022-09-25T21:30:17.129Z,12.50
2022-09-25T21:35:20.965Z,12.70
2022-09-25T21:40:24.580Z,12.70
2022-09-25T21:45:27.937Z,12.70
2022-09-25T21:50:31.643Z,12.90
2022-09-25T21:55:34.750Z,12.00
2022-09-25T22:00:38.004Z,13.90
2022-09-25T22:05:42.673Z,11.80
2022-09-25T22:10:55.596Z,12.20
2022-09-25T22:16:07.219Z,11.70
2022-09-25T22:21:12.819Z,11.00
2022-09-25T22:26:18.693Z,11.50
2022-09-25T22:31:26.049Z,12.50
2022-09-25T22:36:29.624Z,11.40
2022-09-25T22:41:34.061Z,11.20
2022-09-25T22:46:37.285Z,12.10
2022-09-25T22:51:43.382Z,11.80
2022-09-25T22:56:46.780Z,11.30
2022-09-25T23:01:55.168Z,12.60
2022-09-25T23:06:58.369Z,11.40
2022-09-25T23:12:01.775Z,12.70
2022-09-25T23:17:04.991Z,12.30
2022-09-25T23:22:08.273Z,13.30
2022-09-25T23:27:11.446Z,15.00
2022-09-25T23:32:15.092Z,13.60
2022-09-25T23:37:18.410Z,13.80
2022-09-25T23:42:22.446Z,13.50
2022-09-25T23:47:25.755Z,13.60
2022-09-25T23:52:32.334Z,14.40
2022-09-25T23:57:38.061Z,14.10
